Terminal Aerodrome Forecast
Issued by NWS

Home | Current Version | Previous Version | Text Only | Print | Product List | Glossary On
Versions: 1 2 3 4 5 6 7 8 9 10 11 12 13 14 15 16 17
000
FTAK31 PANC 231425 AAB
TAFADU
TAF AMD
PADU 231425Z 2314/2412 20015G22KT P6SM BKN045
     FM231800 19010KT P6SM VCSH SCT025 BKN040
     FM241000 20018G25KT P6SM -RA BKN025 OVC040=

USA.gov is the U.S. government's official web portal to all federal, state and local government web resources and services.